createdAt,value
2022-10-19T00:01:08.408Z,97087.31
2022-10-19T00:04:10.003Z,97082.75
2022-10-19T00:07:11.594Z,97084.91
2022-10-19T00:10:13.188Z,97079.59
2022-10-19T00:13:14.887Z,97089.50
2022-10-19T00:16:17.881Z,97085.75
2022-10-19T00:19:25.522Z,97077.47
2022-10-19T00:22:27.059Z,97086.84
2022-10-19T00:25:28.719Z,97074.03
2022-10-19T00:28:30.657Z,97078.19
2022-10-19T00:31:32.531Z,97069.75
2022-10-19T00:34:34.100Z,97073.91
2022-10-19T00:37:35.687Z,97078.72
2022-10-19T00:40:38.491Z,97073.97
2022-10-19T00:43:58.872Z,97077.13
2022-10-19T00:47:03.782Z,97078.56
2022-10-19T00:50:06.028Z,97085.38
2022-10-19T00:53:07.649Z,97081.34
2022-10-19T00:56:13.947Z,97061.88
2022-10-19T00:59:18.689Z,97063.84
2022-10-19T01:02:20.290Z,97073.44
2022-10-19T01:05:22.459Z,97070.91
2022-10-19T01:08:24.106Z,97063.84
2022-10-19T01:11:38.529Z,97066.69
2022-10-19T01:15:12.088Z,97058.47
2022-10-19T01:18:36.473Z,97069.38
2022-10-19T01:21:48.554Z,97067.00
2022-10-19T01:25:10.770Z,97054.34
2022-10-19T01:28:49.395Z,97060.41
2022-10-19T01:32:27.638Z,97064.38
2022-10-19T01:35:40.977Z,97056.47
2022-10-19T01:38:47.716Z,97061.81
2022-10-19T01:42:01.074Z,97056.09
2022-10-19T01:45:17.381Z,97062.28
2022-10-19T01:48:24.257Z,97062.44
2022-10-19T01:51:32.587Z,97054.72
2022-10-19T01:54:42.687Z,97055.16
2022-10-19T01:57:48.300Z,97056.97
2022-10-19T02:00:53.206Z,97056.31
2022-10-19T02:03:56.473Z,97054.47
2022-10-19T02:06:59.226Z,97041.66
2022-10-19T02:10:01.226Z,97051.94
2022-10-19T02:13:04.531Z,97054.75
2022-10-19T02:16:11.190Z,97057.31
2022-10-19T02:19:15.756Z,97056.59
2022-10-19T02:22:17.640Z,97048.56
2022-10-19T02:25:19.808Z,97057.44
2022-10-19T02:28:22.952Z,97051.25
2022-10-19T02:31:25.345Z,97051.09
2022-10-19T02:34:27.387Z,97051.94
2022-10-19T02:37:29.175Z,97044.75
2022-10-19T02:40:36.132Z,97045.28
2022-10-19T02:43:40.853Z,97046.13
2022-10-19T02:46:45.516Z,97041.47
2022-10-19T02:49:49.111Z,97043.16
2022-10-19T02:52:50.838Z,97049.03
2022-10-19T02:55:52.594Z,97044.38
2022-10-19T02:58:54.323Z,97035.19
2022-10-19T03:01:58.590Z,97024.31
2022-10-19T03:05:00.213Z,97032.91
2022-10-19T03:08:01.743Z,97029.22
2022-10-19T03:11:03.719Z,97006.84
2022-10-19T03:14:05.398Z,97017.34
2022-10-19T03:17:07.204Z,97011.84
2022-10-19T03:20:10.210Z,97005.63
2022-10-19T03:23:11.752Z,97002.34
2022-10-19T03:26:15.772Z,97008.38
2022-10-19T03:29:17.313Z,97005.72
2022-10-19T03:32:19.001Z,97004.88
2022-10-19T03:35:20.625Z,97007.09
2022-10-19T03:38:22.212Z,97009.47
2022-10-19T03:41:27.662Z,97006.78
2022-10-19T03:44:29.200Z,96995.38
2022-10-19T03:47:30.833Z,96997.44
2022-10-19T03:50:32.434Z,96989.69
2022-10-19T03:53:34.416Z,96994.28
2022-10-19T03:56:36.536Z,96997.81
2022-10-19T03:59:38.196Z,97001.84
2022-10-19T04:02:39.794Z,96996.34
2022-10-19T04:05:41.337Z,96995.34
2022-10-19T04:08:44.262Z,96991.53
2022-10-19T04:11:46.219Z,96992.53
2022-10-19T04:14:56.893Z,96988.53
2022-10-19T04:17:59.339Z,96984.00
2022-10-19T04:21:04.453Z,96982.00
2022-10-19T04:24:13.561Z,96989.75
2022-10-19T04:27:15.128Z,96989.56
2022-10-19T04:30:16.763Z,96990.41
2022-10-19T04:33:18.287Z,96994.50
2022-10-19T04:36:20.320Z,96988.13
2022-10-19T04:39:21.860Z,96979.03
2022-10-19T04:42:23.409Z,96987.81
2022-10-19T04:45:24.913Z,96982.59
2022-10-19T04:48:26.431Z,96979.59
2022-10-19T04:51:28.259Z,96981.28
2022-10-19T04:54:29.810Z,96976.59
2022-10-19T04:57:31.682Z,96979.13
2022-10-19T05:00:34.118Z,96972.91
2022-10-19T05:03:35.751Z,96977.97
2022-10-19T05:06:37.412Z,96972.28
2022-10-19T05:09:40.446Z,96970.44
2022-10-19T05:12:42.027Z,96964.06
2022-10-19T05:15:43.693Z,96971.13
2022-10-19T05:18:50.362Z,96974.50
2022-10-19T05:21:52.081Z,96969.97
2022-10-19T05:24:57.334Z,96975.88
2022-10-19T05:27:59.838Z,96969.50
2022-10-19T05:31:13.357Z,96967.50
2022-10-19T05:34:14.916Z,96975.91
2022-10-19T05:37:17.369Z,96973.56
2022-10-19T05:40:28.636Z,96977.28
2022-10-19T05:43:32.196Z,96974.75
2022-10-19T05:46:36.814Z,96968.22
2022-10-19T05:49:41.379Z,96962.84
2022-10-19T05:52:42.942Z,96967.09
2022-10-19T05:55:47.102Z,96971.47
2022-10-19T05:58:49.479Z,96974.84
2022-10-19T06:01:51.103Z,96971.81
2022-10-19T06:04:53.175Z,96969.69
2022-10-19T06:08:00.531Z,96963.78
2022-10-19T06:11:17.091Z,96969.00
2022-10-19T06:14:18.986Z,96984.31
2022-10-19T06:17:24.921Z,96986.84
2022-10-19T06:20:30.363Z,96979.63
2022-10-19T06:23:33.415Z,97000.47
2022-10-19T06:26:35.799Z,96996.44
2022-10-19T06:29:37.510Z,96993.75
2022-10-19T06:32:39.269Z,96993.28
2022-10-19T06:35:43.002Z,96994.78
2022-10-19T06:38:44.835Z,96996.16
2022-10-19T06:41:46.385Z,96997.66
2022-10-19T06:44:59.807Z,96998.34
2022-10-19T06:48:03.664Z,96994.38
2022-10-19T06:51:08.494Z,96994.19
2022-10-19T06:54:10.242Z,97002.78
2022-10-19T06:57:11.928Z,96997.25
2022-10-19T07:00:14.088Z,96995.91
2022-10-19T07:03:15.603Z,97008.03
2022-10-19T07:06:17.398Z,96997.94
2022-10-19T07:09:19.718Z,96989.41
2022-10-19T07:12:21.292Z,96999.81
2022-10-19T07:15:24.897Z,96998.31
2022-10-19T07:18:29.619Z,97000.69
2022-10-19T07:21:31.363Z,96997.50
2022-10-19T07:24:33.876Z,96992.81
2022-10-19T07:27:37.864Z,97002.91
2022-10-19T07:30:39.580Z,96984.75
2022-10-19T07:33:41.303Z,96991.31
2022-10-19T07:36:56.047Z,96994.69
2022-10-19T07:39:57.607Z,96986.28
2022-10-19T07:42:59.186Z,96989.50
2022-10-19T07:46:14.664Z,96989.16
2022-10-19T07:49:19.960Z,96996.22
2022-10-19T07:52:21.485Z,96995.03
2022-10-19T07:55:23.063Z,96991.84
2022-10-19T07:58:24.681Z,96997.63
2022-10-19T08:01:34.571Z,97002.50
2022-10-19T08:08:00.248Z,96995.97
2022-10-19T08:11:13.957Z,96997.13
2022-10-19T08:14:15.629Z,96987.53
2022-10-19T08:17:17.671Z,96989.53
2022-10-19T08:20:21.808Z,96981.63
2022-10-19T08:23:23.799Z,96985.53
2022-10-19T08:26:29.056Z,96987.69
2022-10-19T08:29:31.750Z,96992.22
2022-10-19T08:32:33.929Z,96997.78
2022-10-19T08:35:39.687Z,96994.56
2022-10-19T08:38:45.644Z,96992.72
2022-10-19T08:42:01.277Z,97000.09
2022-10-19T08:45:18.816Z,96999.59
2022-10-19T08:48:35.177Z,96991.16
2022-10-19T08:51:41.073Z,97004.13
2022-10-19T08:55:02.795Z,97000.44
2022-10-19T08:58:25.259Z,96997.88
2022-10-19T09:01:51.963Z,97005.59
2022-10-19T09:05:03.538Z,97007.13
2022-10-19T09:08:05.297Z,96995.19
2022-10-19T09:11:10.372Z,96989.59
2022-10-19T09:14:25.804Z,96990.09
2022-10-19T09:17:28.510Z,96990.56
2022-10-19T09:20:37.931Z,96986.03
2022-10-19T09:23:39.725Z,96994.28
2022-10-19T09:26:52.188Z,96986.03
2022-10-19T09:29:58.880Z,96993.63
2022-10-19T09:33:02.526Z,96982.16
2022-10-19T09:36:07.588Z,96984.31
2022-10-19T09:39:13.562Z,96989.38
2022-10-19T09:42:33.295Z,96995.41
2022-10-19T09:45:38.452Z,96987.31
2022-10-19T09:48:47.674Z,96996.09
2022-10-19T09:51:52.564Z,96996.75
2022-10-19T09:55:17.698Z,96997.59
2022-10-19T09:58:20.722Z,96989.16
2022-10-19T10:01:41.941Z,96990.34
2022-10-19T10:04:57.496Z,96996.34
2022-10-19T10:07:59.359Z,96996.03
2022-10-19T10:11:15.577Z,97001.25
2022-10-19T10:14:21.556Z,96992.97
2022-10-19T10:17:30.602Z,96991.94
2022-10-19T10:20:32.726Z,96992.44
2022-10-19T10:23:36.593Z,97000.38
2022-10-19T10:26:44.456Z,96992.91
2022-10-19T10:33:09.434Z,96988.56
2022-10-19T10:36:27.334Z,96980.47
2022-10-19T10:39:29.507Z,96973.03
2022-10-19T10:42:37.176Z,96973.69
2022-10-19T10:45:47.135Z,96973.69
2022-10-19T10:49:16.245Z,96977.06
2022-10-19T10:52:19.625Z,96974.72
2022-10-19T10:55:21.515Z,96973.88
2022-10-19T10:58:44.676Z,96967.97
2022-10-19T11:01:59.184Z,96960.50
2022-10-19T11:05:07.577Z,96961.84
2022-10-19T11:08:12.118Z,96955.91
2022-10-19T11:11:28.504Z,96958.44
2022-10-19T11:14:44.337Z,96950.88
2022-10-19T11:17:58.407Z,96952.88
2022-10-19T11:21:27.921Z,96934.69
2022-10-19T11:24:50.902Z,96943.25
2022-10-19T11:28:31.063Z,96932.47
2022-10-19T11:31:32.562Z,96927.91
2022-10-19T11:34:56.219Z,96933.31
2022-10-19T11:38:19.581Z,96933.50
2022-10-19T11:41:49.620Z,96923.88
2022-10-19T11:45:21.988Z,96917.00
2022-10-19T11:49:08.037Z,96919.16
2022-10-19T11:52:21.712Z,96912.28
2022-10-19T11:55:37.695Z,96907.00
2022-10-19T11:58:39.280Z,96911.84
2022-10-19T12:01:49.988Z,96904.44
2022-10-19T12:04:55.870Z,96900.72
2022-10-19T12:12:10.079Z,96892.06
2022-10-19T12:15:11.578Z,96885.84
2022-10-19T12:18:22.494Z,96883.97
2022-10-19T12:21:29.325Z,96884.81
2022-10-19T12:24:33.865Z,96878.41
2022-10-19T12:27:40.740Z,96877.84
2022-10-19T12:30:42.438Z,96864.84
2022-10-19T12:33:53.255Z,96865.69
2022-10-19T12:37:15.516Z,96863.00
2022-10-19T12:40:49.305Z,96865.88
2022-10-19T12:44:01.706Z,96856.75
2022-10-19T12:47:18.940Z,96861.66
2022-10-19T12:50:49.295Z,96854.22
2022-10-19T12:53:51.031Z,96849.28
2022-10-19T12:56:55.523Z,96846.25
2022-10-19T13:00:21.197Z,96848.56
2022-10-19T13:03:25.180Z,96830.31
2022-10-19T13:06:33.952Z,96830.63
2022-10-19T13:09:39.378Z,96807.72
2022-10-19T13:12:46.802Z,96820.16
2022-10-19T13:15:52.164Z,96818.91
2022-10-19T13:19:21.166Z,96807.75
2022-10-19T13:22:27.692Z,96810.94
2022-10-19T13:25:39.726Z,96810.56
2022-10-19T13:28:57.539Z,96806.00
2022-10-19T13:32:37.806Z,96805.34
2022-10-19T13:35:41.042Z,96808.50
2022-10-19T13:39:02.865Z,96801.06
2022-10-19T13:42:04.675Z,96794.28
2022-10-19T13:45:06.813Z,96783.66
2022-10-19T13:48:23.612Z,96791.75
2022-10-19T13:51:37.166Z,96791.84
2022-10-19T13:54:57.842Z,96784.22
2022-10-19T13:58:36.688Z,96777.41
2022-10-19T14:01:51.770Z,96782.03
2022-10-19T14:05:12.186Z,96780.56
2022-10-19T14:08:38.268Z,96772.66
2022-10-19T14:11:45.764Z,96772.38
2022-10-19T14:14:47.388Z,96772.75
2022-10-19T14:17:49.197Z,96764.66
2022-10-19T14:21:01.635Z,96755.53
2022-10-19T14:24:18.815Z,96742.38
2022-10-19T14:27:24.703Z,96744.72
2022-10-19T14:30:32.788Z,96745.09
2022-10-19T14:33:38.060Z,96747.88
2022-10-19T14:36:45.127Z,96750.31
2022-10-19T14:40:00.338Z,96751.56
2022-10-19T14:43:02.053Z,96751.06
2022-10-19T14:46:06.735Z,96749.88
2022-10-19T14:49:11.700Z,96738.41
2022-10-19T14:52:20.141Z,96732.34
2022-10-19T14:55:22.711Z,96737.41
2022-10-19T14:58:27.792Z,96743.16
2022-10-19T15:01:30.229Z,96722.47
2022-10-19T15:04:38.592Z,96743.34
2022-10-19T15:07:43.064Z,96745.84
2022-10-19T15:10:47.310Z,96735.25
2022-10-19T15:13:51.826Z,96728.38
2022-10-19T15:16:55.060Z,96723.31
2022-10-19T15:20:01.123Z,96723.03
2022-10-19T15:23:25.911Z,96733.75
2022-10-19T15:26:31.108Z,96730.09
2022-10-19T15:29:32.659Z,96712.31
2022-10-19T15:32:38.389Z,96709.19
2022-10-19T15:35:44.040Z,96699.59
2022-10-19T15:39:24.861Z,96716.88
2022-10-19T15:42:38.252Z,96713.06
2022-10-19T15:45:39.950Z,96716.78
2022-10-19T15:48:41.453Z,96703.47
2022-10-19T15:51:45.154Z,96704.72
2022-10-19T15:54:57.973Z,96698.38
2022-10-19T15:58:00.282Z,96696.13
2022-10-19T16:01:01.975Z,96702.16
2022-10-19T16:04:03.699Z,96703.75
2022-10-19T16:07:05.422Z,96707.81
2022-10-19T16:10:08.525Z,96702.31
2022-10-19T16:13:10.155Z,96701.38
2022-10-19T16:16:21.108Z,96690.84
2022-10-19T16:24:50.007Z,96708.19
2022-10-19T16:27:51.753Z,96695.28
2022-10-19T16:30:54.657Z,96695.88
2022-10-19T16:33:56.318Z,96686.38
2022-10-19T16:37:01.403Z,96693.47
2022-10-19T16:54:57.624Z,96698.31
2022-10-19T16:57:59.513Z,96688.22
2022-10-19T17:01:07.571Z,96690.59
2022-10-19T17:04:09.481Z,96688.94
2022-10-19T17:07:12.905Z,96695.16
2022-10-19T17:10:15.401Z,96673.19
2022-10-19T17:13:30.707Z,96673.84
2022-10-19T17:25:37.918Z,96679.66
2022-10-19T17:28:40.445Z,96680.16
2022-10-19T17:31:42.699Z,96698.81
2022-10-19T17:34:44.324Z,96692.91
2022-10-19T17:37:45.927Z,96698.81
2022-10-19T17:40:47.711Z,96691.28
2022-10-19T17:43:53.486Z,96694.97
2022-10-19T17:47:20.147Z,96692.28
2022-10-19T17:56:04.184Z,96713.78
2022-10-19T17:59:08.897Z,96713.31
2022-10-19T18:02:44.090Z,96719.69
2022-10-19T18:06:00.021Z,96724.06
2022-10-19T18:09:03.862Z,96717.16
2022-10-19T18:12:07.542Z,96725.56
2022-10-19T18:15:12.555Z,96722.34
2022-10-19T18:18:14.329Z,96733.06
2022-10-19T18:21:19.032Z,96731.75
2022-10-19T18:24:21.532Z,96729.88
2022-10-19T18:27:40.569Z,96722.13
2022-10-19T18:30:45.142Z,96722.63
2022-10-19T18:33:48.281Z,96710.88
2022-10-19T18:36:50.446Z,96717.25
2022-10-19T18:39:52.008Z,96711.38
2022-10-19T18:42:53.554Z,96711.84
2022-10-19T18:45:58.139Z,96713.34
2022-10-19T18:58:05.590Z,96687.94
2022-10-19T19:01:16.062Z,96701.19
2022-10-19T19:04:18.141Z,96694.13
2022-10-19T19:07:19.752Z,96692.44
2022-10-19T19:10:21.741Z,96692.44
2022-10-19T19:13:24.082Z,96688.38
2022-10-19T19:16:27.526Z,96685.00
2022-10-19T19:19:29.863Z,96682.28
2022-10-19T19:22:38.903Z,96693.19
2022-10-19T19:25:41.027Z,96692.50
2022-10-19T19:34:09.809Z,96687.25
2022-10-19T19:40:47.951Z,96674.66
2022-10-19T19:43:49.547Z,96677.66
2022-10-19T19:46:51.085Z,96670.09
2022-10-19T19:49:52.648Z,96676.47
2022-10-19T19:52:54.210Z,96675.09
2022-10-19T19:55:58.040Z,96674.59
2022-10-19T19:59:00.813Z,96663.97
2022-10-19T20:07:05.544Z,96667.09
2022-10-19T20:13:44.686Z,96674.09
2022-10-19T20:16:46.436Z,96678.91
2022-10-19T20:19:48.085Z,96663.97
2022-10-19T20:22:49.986Z,96674.88
2022-10-19T20:25:53.542Z,96670.66
2022-10-19T20:28:55.752Z,96657.22
2022-10-19T20:31:57.544Z,96664.94
2022-10-19T20:34:59.136Z,96657.84
2022-10-19T20:38:00.738Z,96648.47
2022-10-19T20:41:07.047Z,96659.16
2022-10-19T20:44:09.843Z,96661.00
2022-10-19T20:47:14.973Z,96654.41
2022-10-19T20:50:19.296Z,96655.88
2022-10-19T20:53:31.800Z,96666.81
2022-10-19T20:56:36.307Z,96669.97
2022-10-19T20:59:39.545Z,96665.75
2022-10-19T21:02:44.743Z,96664.53
2022-10-19T21:05:46.442Z,96660.50
2022-10-19T21:08:48.303Z,96659.34
2022-10-19T21:11:53.315Z,96642.91
2022-10-19T21:14:54.895Z,96644.75
2022-10-19T21:17:56.476Z,96649.41
2022-10-19T21:20:58.131Z,96630.78
2022-10-19T21:24:04.475Z,96635.94
2022-10-19T21:27:08.994Z,96636.28
2022-10-19T21:30:12.464Z,96636.91
2022-10-19T21:33:14.112Z,96635.38
2022-10-19T21:36:15.772Z,96639.34
2022-10-19T21:39:18.014Z,96638.94
2022-10-19T21:42:19.635Z,96635.91
2022-10-19T21:45:36.275Z,96635.22
2022-10-19T21:48:38.348Z,96628.72
2022-10-19T21:51:45.282Z,96618.50
2022-10-19T21:54:47.153Z,96611.75
2022-10-19T21:57:56.231Z,96602.38
2022-10-19T22:01:04.920Z,96599.72
2022-10-19T22:04:08.789Z,96593.50
2022-10-19T22:07:13.384Z,96590.28
2022-10-19T22:10:22.998Z,96573.19
2022-10-19T22:13:47.391Z,96570.13
2022-10-19T22:16:50.196Z,96576.69
2022-10-19T22:19:51.906Z,96578.69
2022-10-19T22:22:55.904Z,96574.66
2022-10-19T22:25:59.788Z,96585.72
2022-10-19T22:29:02.207Z,96597.38
2022-10-19T22:32:07.063Z,96600.66
2022-10-19T22:35:08.831Z,96595.78
2022-10-19T22:38:13.054Z,96607.47
2022-10-19T22:41:17.118Z,96601.91
2022-10-19T22:44:18.833Z,96592.19
2022-10-19T22:47:20.546Z,96598.66
2022-10-19T22:50:24.059Z,96583.25
2022-10-19T22:53:25.645Z,96582.16
2022-10-19T22:56:30.074Z,96586.81
2022-10-19T22:59:36.200Z,96583.88
2022-10-19T23:02:38.090Z,96587.16
2022-10-19T23:05:45.126Z,96577.22
2022-10-19T23:08:47.334Z,96578.91
2022-10-19T23:11:49.067Z,96588.06
2022-10-19T23:14:52.573Z,96574.75
2022-10-19T23:17:54.674Z,96578.41
2022-10-19T23:21:01.260Z,96580.38
2022-10-19T23:24:02.976Z,96591.50
2022-10-19T23:27:07.517Z,96573.56
2022-10-19T23:30:09.496Z,96552.25
2022-10-19T23:33:11.162Z,96563.22
2022-10-19T23:36:19.964Z,96579.50
2022-10-19T23:39:21.575Z,96582.44
2022-10-19T23:42:23.168Z,96565.66
2022-10-19T23:45:24.750Z,96563.97
2022-10-19T23:48:26.386Z,96560.72
2022-10-19T23:51:28.031Z,96574.31
2022-10-19T23:54:29.670Z,96570.69
2022-10-19T23:57:31.309Z,96569.69
